Time;durP1;ratioP1;P1;durP2;ratioP2;P2;SDS_P1;SDS_P2;PMS_P1;PMS_P2;Temp;Humidity;BMP_temperature;BMP_pressure;BME280_temperature;BME280_humidity;BME280_pressure;Samples;Min_cycle;Max_cycle;Signal;HPM_P1;HPM_P2
2024/01/18 00:01:14;;;;;;;;;;;;;;;-3.76;61.21;92894.38;5020673;28;19955;-63
2024/01/18 00:03:39;;;;;;;;;;;;;;;-4.24;63.21;92900.81;5022734;28;20234;-63
2024/01/18 00:06:05;;;;;;;;;;;;;;;-3.28;60.96;92894.69;5020139;28;19976;-63
2024/01/18 00:08:30;;;;;;;;;;;;;;;-3.14;59.38;92891.47;5021976;28;20281;-63
2024/01/18 00:10:55;;;;;;;;;;;;;;;-2.92;56.63;92896.22;5022148;28;19929;-63
2024/01/18 00:13:20;;;;;;;;;;;;;;;-3.03;56.40;92884.28;5019113;28;20445;-63
2024/01/18 00:15:45;;;;;;;;;;;;;;;-2.69;60.02;92888.53;5015939;28;19925;-63
2024/01/18 00:18:11;;;;;;;;;;;;;;;-2.59;58.17;92888.38;5015380;28;19925;-63
2024/01/18 00:20:36;;;;;;;;;;;;;;;-2.15;56.69;92881.13;5021378;28;20504;-64
2024/01/18 00:23:01;;;;;;;;;;;;;;;-1.72;59.14;92889.47;5023089;28;19929;-63
2024/01/18 00:25:26;;;;;;;;;;;;;;;-2.29;52.89;92893.06;5028828;28;20293;-63
2024/01/18 00:27:52;;;;;;;;;;;;;;;-2.06;53.11;92910.63;5025341;28;20394;-63
2024/01/18 00:30:18;;;;;;;;;;;;;;;-2.16;55.84;92916.03;5030175;28;20011;-63
2024/01/18 00:32:43;;;;;;;;;;;;;;;-2.19;55.99;92914.56;5029156;28;19981;-63
2024/01/18 00:35:09;;;;;;;;;;;;;;;-1.88;53.47;92903.41;5029672;28;20584;-63
2024/01/18 00:37:34;;;;;;;;;;;;;;;-1.99;55.13;92899.38;5026102;28;19929;-63
2024/01/18 00:39:59;;;;;;;;;;;;;;;-2.13;54.73;92898.25;5025887;28;19936;-63
2024/01/18 00:42:25;;;;;;;;;;;;;;;-1.98;52.77;92898.38;5031497;28;19958;-63
2024/01/18 00:44:50;;;;;;;;;;;;;;;-1.58;54.79;92897.59;5029370;28;19972;-63
2024/01/18 00:47:15;;;;;;;;;;;;;;;-1.76;53.53;92906.44;5027516;28;19955;-63
2024/01/18 00:49:40;;;;;;;;;;;;;;;-2.41;53.88;92919.47;5024998;28;20364;-63
2024/01/18 00:52:06;;;;;;;;;;;;;;;-3.19;55.84;92937.97;5027631;28;19965;-63
2024/01/18 00:54:31;;;;;;;;;;;;;;;-4.68;61.00;92943.22;5020961;28;19997;-65
2024/01/18 00:56:56;;;;;;;;;;;;;;;-4.99;63.66;92951.38;5019570;28;20330;-63
2024/01/18 00:59:21;;;;;;;;;;;;;;;-5.47;64.62;92957.53;5017054;28;20277;-63
2024/01/18 01:01:47;;;;;;;;;;;;;;;-5.31;64.93;92958.69;5017294;28;19991;-62
2024/01/18 01:04:12;;;;;;;;;;;;;;;-5.76;66.67;92974.06;5021493;28;19952;-64
2024/01/18 01:06:37;;;;;;;;;;;;;;;-5.14;67.81;92980.44;5020741;28;20323;-63
2024/01/18 01:09:03;;;;;;;;;;;;;;;-4.57;67.08;92981.13;5019293;28;19990;-64
2024/01/18 01:11:29;;;;;;;;;;;;;;;-4.52;64.00;92972.88;5019217;28;20143;-63
2024/01/18 01:13:54;;;;;;;;;;;;;;;-4.43;62.72;92965.00;5024957;28;20395;-62
2024/01/18 01:16:20;;;;;;;;;;;;;;;-4.39;63.93;92957.72;5020099;28;20456;-65
2024/01/18 01:18:46;;;;;;;;;;;;;;;-4.47;62.70;92955.06;5022910;28;20279;-63
2024/01/18 01:21:11;;;;;;;;;;;;;;;-3.54;65.02;92956.22;5032311;28;19963;-63
2024/01/18 01:23:41;;;;;;;;;;;;;;;-3.53;61.92;92952.66;5020224;28;20496;-65
2024/01/18 01:26:10;;;;;;;;;;;;;;;-3.84;61.62;92975.78;5028472;28;20344;-64
2024/01/18 01:28:35;;;;;;;;;;;;;;;-3.84;63.29;92955.78;5017109;28;20520;-63
2024/01/18 01:31:00;;;;;;;;;;;;;;;-4.42;62.10;92963.19;5019655;28;19934;-65
2024/01/18 01:33:26;;;;;;;;;;;;;;;-3.14;60.05;92971.34;5027124;28;19929;-64
2024/01/18 01:35:51;;;;;;;;;;;;;;;-3.66;57.88;92976.50;5026062;28;20403;-63
2024/01/18 01:38:17;;;;;;;;;;;;;;;-3.41;61.98;92973.19;5026472;28;20228;-63
2024/01/18 01:40:42;;;;;;;;;;;;;;;-2.92;57.44;92977.72;5025450;28;19987;-64
2024/01/18 01:43:09;;;;;;;;;;;;;;;-3.05;56.03;92974.78;5028224;28;20425;-65
2024/01/18 01:45:34;;;;;;;;;;;;;;;-3.38;55.69;92985.06;5024088;28;20603;-66
2024/01/18 01:47:59;;;;;;;;;;;;;;;-3.61;56.87;93001.22;5025331;28;19951;-65
2024/01/18 01:50:24;;;;;;;;;;;;;;;-3.90;57.46;92998.00;5028483;28;20035;-66
2024/01/18 01:52:50;;;;;;;;;;;;;;;-3.91;59.62;93009.34;5026823;28;20071;-64
2024/01/18 01:55:15;;;;;;;;;;;;;;;-4.58;59.88;93015.84;5027912;28;19976;-64
2024/01/18 01:57:42;;;;;;;;;;;;;;;-4.62;61.81;93004.13;5028796;28;20260;-64
2024/01/18 02:00:07;;;;;;;;;;;;;;;-4.29;59.70;93009.56;5029846;28;19964;-64
2024/01/18 02:02:32;;;;;;;;;;;;;;;-4.10;61.80;93003.41;5028143;28;20362;-64
2024/01/18 02:04:58;;;;;;;;;;;;;;;-3.82;60.66;93005.84;5024906;28;20417;-64
2024/01/18 02:07:24;;;;;;;;;;;;;;;-3.53;60.19;93017.69;5024725;28;19974;-64
2024/01/18 02:09:49;;;;;;;;;;;;;;;-3.65;58.58;93013.72;5028854;28;19937;-63
2024/01/18 02:12:14;;;;;;;;;;;;;;;-4.12;57.83;93010.53;5026032;28;20174;-64
2024/01/18 02:14:40;;;;;;;;;;;;;;;-3.79;59.90;93009.91;5027496;28;20523;-64
2024/01/18 02:17:06;;;;;;;;;;;;;;;-4.18;59.03;93005.91;5025492;28;19972;-64
2024/01/18 02:19:31;;;;;;;;;;;;;;;-4.53;60.36;93007.59;5028397;28;20341;-64
2024/01/18 02:21:56;;;;;;;;;;;;;;;-4.55;60.88;93015.56;5022052;28;19977;-64
2024/01/18 02:24:25;;;;;;;;;;;;;;;-4.98;61.21;93038.66;5026983;28;19961;-64
2024/01/18 02:26:50;;;;;;;;;;;;;;;-5.68;63.86;93050.31;5022830;28;20296;-64
2024/01/18 02:29:15;;;;;;;;;;;;;;;-5.73;64.78;93033.41;5028036;28;20448;-64
2024/01/18 02:31:40;;;;;;;;;;;;;;;-5.01;63.69;93021.59;5024637;28;20589;-64
2024/01/18 02:34:10;;;;;;;;;;;;;;;-4.96;64.05;93021.97;5028159;28;20441;-64
2024/01/18 02:36:35;;;;;;;;;;;;;;;-5.64;64.78;93025.72;5021921;28;20348;-64
2024/01/18 02:39:00;;;;;;;;;;;;;;;-5.17;64.62;93009.25;5027716;28;19939;-64
2024/01/18 02:41:26;;;;;;;;;;;;;;;-4.97;63.89;93015.16;5027479;28;19990;-64
2024/01/18 02:43:51;;;;;;;;;;;;;;;-4.72;62.37;93014.59;5026558;28;19967;-64
2024/01/18 02:46:17;;;;;;;;;;;;;;;-4.40;59.28;93010.63;5023741;28;19973;-64
2024/01/18 02:48:42;;;;;;;;;;;;;;;-5.39;63.48;93015.66;5022549;28;19962;-65
2024/01/18 02:51:07;;;;;;;;;;;;;;;-4.26;62.81;93014.47;5026221;28;19950;-64
2024/01/18 02:53:33;;;;;;;;;;;;;;;-4.24;58.41;93016.94;5026083;28;20051;-64
2024/01/18 02:55:58;;;;;;;;;;;;;;;-4.07;58.78;93010.88;5021721;28;20042;-64
2024/01/18 02:58:23;;;;;;;;;;;;;;;-4.72;61.65;93014.59;5024326;28;20056;-64
2024/01/18 03:00:48;;;;;;;;;;;;;;;-4.90;62.46;93019.78;5025917;28;20157;-64
2024/01/18 03:03:14;;;;;;;;;;;;;;;-5.20;62.50;93017.31;5030901;28;19992;-64
2024/01/18 03:05:40;;;;;;;;;;;;;;;-6.09;63.91;93022.03;5026695;28;20344;-64
2024/01/18 03:08:05;;;;;;;;;;;;;;;-6.66;67.64;93013.25;5025493;28;20350;-64
2024/01/18 03:10:30;;;;;;;;;;;;;;;-5.60;64.12;93007.13;5026246;28;19945;-64
2024/01/18 03:12:56;;;;;;;;;;;;;;;-5.07;66.76;93002.25;5018095;28;20488;-64
2024/01/18 03:15:21;;;;;;;;;;;;;;;-4.57;66.95;93010.50;5026465;28;20034;-64
2024/01/18 03:17:47;;;;;;;;;;;;;;;-4.36;62.42;93014.56;5023043;28;20201;-64
2024/01/18 03:20:12;;;;;;;;;;;;;;;-4.31;59.44;93021.91;5017479;28;19961;-64
2024/01/18 03:22:40;;;;;;;;;;;;;;;-5.11;60.92;93013.88;5014518;28;19935;-64
2024/01/18 03:25:05;;;;;;;;;;;;;;;-4.24;63.45;93022.94;5016305;28;20048;-64
2024/01/18 03:27:31;;;;;;;;;;;;;;;-5.28;59.66;93012.03;5016953;28;19944;-64
2024/01/18 03:29:56;;;;;;;;;;;;;;;-4.94;67.79;93011.44;5016238;28;20257;-64
2024/01/18 03:32:21;;;;;;;;;;;;;;;-4.66;62.76;93032.16;5006885;28;19959;-64
2024/01/18 03:34:47;;;;;;;;;;;;;;;-4.50;58.68;93038.47;4994453;28;19941;-64
2024/01/18 03:37:12;;;;;;;;;;;;;;;-4.22;58.31;93038.38;5010451;28;19974;-64
2024/01/18 03:39:37;;;;;;;;;;;;;;;-4.25;61.63;93031.69;5014633;28;19931;-64
2024/01/18 03:42:02;;;;;;;;;;;;;;;-3.92;61.31;93029.34;5017675;28;19929;-64
2024/01/18 03:44:28;;;;;;;;;;;;;;;-3.23;62.93;93026.94;5015028;28;19947;-65
2024/01/18 03:46:53;;;;;;;;;;;;;;;-2.90;55.59;93019.22;5029493;28;19942;-64
2024/01/18 03:49:19;;;;;;;;;;;;;;;-4.17;56.86;93023.97;5014087;28;19955;-64
2024/01/18 03:51:45;;;;;;;;;;;;;;;-4.07;55.45;93036.06;5017196;28;20378;-63
2024/01/18 03:54:10;;;;;;;;;;;;;;;-4.65;56.16;93027.78;5017152;28;20036;-64
2024/01/18 03:56:35;;;;;;;;;;;;;;;-3.27;54.85;93023.81;5019428;28;20429;-63
2024/01/18 03:59:01;;;;;;;;;;;;;;;-5.03;60.25;93030.50;5020500;28;19963;-64
2024/01/18 04:01:30;;;;;;;;;;;;;;;-5.08;61.94;93023.13;5012187;28;19957;-64
2024/01/18 04:03:55;;;;;;;;;;;;;;;-6.88;65.11;93022.88;5011511;28;19958;-64
2024/01/18 04:06:20;;;;;;;;;;;;;;;-5.18;63.71;93024.97;5028158;28;19949;-64
2024/01/18 04:08:46;;;;;;;;;;;;;;;-4.94;63.15;93027.03;5018130;28;19976;-64
2024/01/18 04:11:11;;;;;;;;;;;;;;;-5.67;61.17;93032.03;5019902;28;19931;-64
2024/01/18 04:13:36;;;;;;;;;;;;;;;-6.15;63.25;93028.59;5029139;28;19998;-64
2024/01/18 04:16:02;;;;;;;;;;;;;;;-5.74;64.72;93028.34;5025480;28;19938;-64
2024/01/18 04:18:27;;;;;;;;;;;;;;;-5.27;62.69;93011.91;5017331;28;19956;-64
2024/01/18 04:20:52;;;;;;;;;;;;;;;-3.84;57.81;93017.38;5017632;28;20019;-64
2024/01/18 04:23:19;;;;;;;;;;;;;;;-3.31;61.60;93017.31;5031514;28;19948;-64
2024/01/18 04:25:44;;;;;;;;;;;;;;;-2.97;60.71;93026.88;5023448;28;19968;-64
2024/01/18 04:28:09;;;;;;;;;;;;;;;-3.41;54.01;93039.06;5024253;28;19995;-64
2024/01/18 04:30:35;;;;;;;;;;;;;;;-3.40;58.30;93042.47;5021561;28;20091;-65
2024/01/18 04:33:00;;;;;;;;;;;;;;;-3.08;57.08;93046.22;5017522;28;19971;-64
2024/01/18 04:35:25;;;;;;;;;;;;;;;-3.02;58.71;93040.34;5019206;28;20015;-64
2024/01/18 04:37:50;;;;;;;;;;;;;;;-3.34;55.36;93049.66;5017345;28;19990;-65
2024/01/18 04:40:16;;;;;;;;;;;;;;;-5.28;56.52;93056.97;5026499;28;20465;-64
2024/01/18 04:42:42;;;;;;;;;;;;;;;-3.35;60.72;93068.03;5028956;28;20532;-64
2024/01/18 04:45:07;;;;;;;;;;;;;;;-3.23;53.44;93063.38;5021173;28;19974;-64
2024/01/18 04:47:32;;;;;;;;;;;;;;;-3.17;55.84;93065.34;5020122;28;20449;-64
2024/01/18 04:49:58;;;;;;;;;;;;;;;-3.59;51.37;93070.34;5018733;28;19990;-65
2024/01/18 04:52:23;;;;;;;;;;;;;;;-3.38;57.93;93074.38;5024631;28;19969;-64
2024/01/18 04:54:48;;;;;;;;;;;;;;;-3.59;53.10;93080.75;5017213;28;20208;-64
2024/01/18 04:57:14;;;;;;;;;;;;;;;-3.57;58.88;93085.81;5026600;28;19966;-64
2024/01/18 04:59:39;;;;;;;;;;;;;;;-3.87;53.98;93083.47;5017965;28;20366;-64
2024/01/18 05:02:04;;;;;;;;;;;;;;;-3.50;56.03;93091.22;5020131;28;19992;-64
2024/01/18 05:04:29;;;;;;;;;;;;;;;-3.25;56.74;93099.97;5016767;28;19966;-64
2024/01/18 05:06:55;;;;;;;;;;;;;;;-3.33;54.34;93110.34;5023152;28;19949;-64
2024/01/18 05:09:20;;;;;;;;;;;;;;;-3.54;54.26;93108.91;5021460;28;19978;-64
2024/01/18 05:11:46;;;;;;;;;;;;;;;-4.00;54.00;93115.09;5022309;28;19959;-64
2024/01/18 05:14:11;;;;;;;;;;;;;;;-4.01;54.37;93110.03;5020903;28;19997;-64
2024/01/18 05:16:40;;;;;;;;;;;;;;;-3.82;59.19;93111.63;5021363;28;19929;-64
2024/01/18 05:19:07;;;;;;;;;;;;;;;-3.89;58.26;93113.19;5026811;28;19958;-64
2024/01/18 05:21:33;;;;;;;;;;;;;;;-3.76;58.76;93118.00;5019848;28;20358;-64
2024/01/18 05:23:58;;;;;;;;;;;;;;;-5.22;56.26;93117.84;5021689;28;20168;-64
2024/01/18 05:26:23;;;;;;;;;;;;;;;-5.18;58.83;93123.56;5018810;28;19992;-64
2024/01/18 05:28:49;;;;;;;;;;;;;;;-4.86;61.31;93119.75;5016793;28;19970;-64
2024/01/18 05:31:14;;;;;;;;;;;;;;;-4.87;62.37;93123.28;5023090;28;19947;-63
2024/01/18 05:33:39;;;;;;;;;;;;;;;-3.89;61.78;93116.63;5016754;28;20034;-63
2024/01/18 05:36:05;;;;;;;;;;;;;;;-4.07;54.70;93120.03;5018716;28;20261;-65
2024/01/18 05:38:33;;;;;;;;;;;;;;;-3.61;54.85;93126.91;5018762;28;19976;-64
2024/01/18 05:40:58;;;;;;;;;;;;;;;-3.88;59.41;93126.03;5018571;28;19959;-63
2024/01/18 05:43:23;;;;;;;;;;;;;;;-3.42;54.21;93132.88;5020994;28;19917;-64
2024/01/18 05:45:48;;;;;;;;;;;;;;;-4.61;56.65;93136.44;5018830;28;19946;-64
2024/01/18 05:48:14;;;;;;;;;;;;;;;-4.77;59.70;93138.81;5021363;28;20089;-63
2024/01/18 05:50:39;;;;;;;;;;;;;;;-4.82;59.12;93145.25;5019619;28;20176;-64
2024/01/18 05:53:04;;;;;;;;;;;;;;;-4.80;58.26;93145.13;5023437;28;19966;-64
2024/01/18 05:55:30;;;;;;;;;;;;;;;-4.40;57.99;93148.31;5022784;28;20221;-63
2024/01/18 05:57:55;;;;;;;;;;;;;;;-3.98;59.59;93154.72;5021307;28;19974;-64
2024/01/18 06:00:20;;;;;;;;;;;;;;;-3.67;60.98;93159.53;5019686;28;20509;-63
2024/01/18 06:02:45;;;;;;;;;;;;;;;-5.68;56.33;93159.19;5020313;28;19990;-65
2024/01/18 06:05:11;;;;;;;;;;;;;;;-4.63;65.78;93164.31;5017194;28;20561;-64
2024/01/18 06:07:36;;;;;;;;;;;;;;;-4.82;56.58;93165.22;5018881;28;20299;-63
2024/01/18 06:10:01;;;;;;;;;;;;;;;-4.32;58.03;93164.00;5016298;28;20818;-63
2024/01/18 06:12:27;;;;;;;;;;;;;;;-4.38;53.76;93161.16;5019598;28;20569;-64
2024/01/18 06:14:52;;;;;;;;;;;;;;;-4.56;54.95;93170.56;5018983;28;20445;-62
2024/01/18 06:17:17;;;;;;;;;;;;;;;-5.04;55.24;93176.78;5015476;28;19944;-64
2024/01/18 06:19:42;;;;;;;;;;;;;;;-4.82;61.51;93181.59;5019209;28;20241;-65
2024/01/18 06:22:08;;;;;;;;;;;;;;;-3.70;61.55;93172.03;5016666;28;19921;-64
2024/01/18 06:24:34;;;;;;;;;;;;;;;-3.27;62.36;93180.81;5017176;28;19959;-65
2024/01/18 06:26:59;;;;;;;;;;;;;;;-4.95;55.98;93194.09;5022531;28;20039;-64
2024/01/18 06:29:26;;;;;;;;;;;;;;;-4.17;54.64;93185.09;5016087;28;19961;-63
2024/01/18 06:31:52;;;;;;;;;;;;;;;-5.29;57.21;93203.22;5020869;28;19955;-62
2024/01/18 06:34:17;;;;;;;;;;;;;;;-4.35;62.45;93205.84;4996109;28;19931;-62
2024/01/18 06:36:42;;;;;;;;;;;;;;;-4.78;54.36;93215.09;5011755;28;20017;-63
2024/01/18 06:39:08;;;;;;;;;;;;;;;-5.94;58.55;93211.59;5014879;28;20217;-64
2024/01/18 06:41:33;;;;;;;;;;;;;;;-6.13;65.56;93215.78;5022136;28;19947;-64
2024/01/18 06:43:59;;;;;;;;;;;;;;;-5.71;66.36;93222.50;5018462;28;20465;-64
2024/01/18 06:46:24;;;;;;;;;;;;;;;-5.24;65.62;93218.34;5015092;28;20388;-64
2024/01/18 06:48:57;;;;;;;;;;;;;;;-5.38;59.89;93217.00;5027482;28;19957;-64
2024/01/18 06:51:22;;;;;;;;;;;;;;;-4.78;66.19;93212.47;5020223;28;19917;-64
2024/01/18 06:53:47;;;;;;;;;;;;;;;-5.41;57.85;93218.09;5015553;28;20275;-64
2024/01/18 06:56:13;;;;;;;;;;;;;;;-4.41;64.04;93219.44;5016060;28;20483;-64
2024/01/18 06:58:39;;;;;;;;;;;;;;;-3.74;61.84;93222.72;5016057;28;20514;-64
2024/01/18 07:01:04;;;;;;;;;;;;;;;-3.55;56.83;93214.75;5019961;28;19925;-64
2024/01/18 07:03:30;;;;;;;;;;;;;;;-3.53;55.04;93212.81;5018961;28;19924;-64
2024/01/18 07:05:56;;;;;;;;;;;;;;;-3.32;56.84;93224.69;5019581;28;20297;-64
2024/01/18 07:08:21;;;;;;;;;;;;;;;-3.64;52.54;93226.03;5020359;28;20263;-64
2024/01/18 07:10:48;;;;;;;;;;;;;;;-3.20;58.83;93238.28;5016316;28;19961;-64
2024/01/18 07:13:13;;;;;;;;;;;;;;;-2.92;56.46;93238.13;5028132;28;19925;-64
2024/01/18 07:15:39;;;;;;;;;;;;;;;-3.38;52.02;93246.09;5014985;28;20000;-64
2024/01/18 07:18:04;;;;;;;;;;;;;;;-4.20;54.12;93255.56;5022887;28;19983;-64
2024/01/18 07:20:29;;;;;;;;;;;;;;;-4.61;57.27;93258.50;5019795;28;19932;-64
2024/01/18 07:22:55;;;;;;;;;;;;;;;-5.72;57.17;93259.75;5018574;28;20224;-64
2024/01/18 07:25:21;;;;;;;;;;;;;;;-6.07;64.51;93259.31;5015397;28;19921;-64
2024/01/18 07:27:47;;;;;;;;;;;;;;;-4.32;59.65;93257.53;5025238;28;19929;-64
2024/01/18 07:30:14;;;;;;;;;;;;;;;-4.59;63.78;93258.31;5024290;28;19935;-64
2024/01/18 07:32:39;;;;;;;;;;;;;;;-5.26;63.25;93261.78;5029061;28;19959;-64
2024/01/18 07:35:04;;;;;;;;;;;;;;;-6.22;63.45;93266.63;5022666;28;19959;-64
2024/01/18 07:37:30;;;;;;;;;;;;;;;-5.99;66.01;93269.00;5015935;28;19991;-64
2024/01/18 07:39:57;;;;;;;;;;;;;;;-5.99;60.27;93263.81;5026152;28;20472;-63
2024/01/18 07:42:22;;;;;;;;;;;;;;;-5.92;63.61;93271.84;5028632;28;20001;-64
2024/01/18 07:44:47;;;;;;;;;;;;;;;-5.78;65.37;93275.84;5023608;28;19964;-65
2024/01/18 07:47:13;;;;;;;;;;;;;;;-5.80;64.48;93280.34;5028379;28;20038;-63
2024/01/18 07:49:42;;;;;;;;;;;;;;;-5.92;63.22;93275.28;5027457;28;20041;-64
2024/01/18 07:52:08;;;;;;;;;;;;;;;-5.81;61.90;93269.16;5033120;28;19929;-64
2024/01/18 07:54:33;;;;;;;;;;;;;;;-5.66;60.92;93287.72;5031545;28;19932;-65
2024/01/18 07:56:58;;;;;;;;;;;;;;;-6.53;61.95;93292.56;5026953;28;20098;-64
2024/01/18 07:59:24;;;;;;;;;;;;;;;-5.81;68.38;93294.28;5032204;28;19929;-64
2024/01/18 08:01:49;;;;;;;;;;;;;;;-6.50;62.18;93292.31;5032749;28;20007;-62
2024/01/18 08:04:15;;;;;;;;;;;;;;;-6.30;63.04;93290.59;5040592;28;19961;-64
2024/01/18 08:06:42;;;;;;;;;;;;;;;-6.29;67.70;93292.25;5028988;28;19925;-64
2024/01/18 08:09:07;;;;;;;;;;;;;;;-6.03;66.08;93294.38;5028135;28;19963;-64
2024/01/18 08:11:33;;;;;;;;;;;;;;;-6.85;70.41;93291.75;5024439;28;19979;-65
2024/01/18 08:13:58;;;;;;;;;;;;;;;-5.49;66.69;93285.41;5021530;28;20412;-63
2024/01/18 08:16:23;;;;;;;;;;;;;;;-5.94;62.08;93282.38;5041783;28;20225;-64
2024/01/18 08:18:48;;;;;;;;;;;;;;;-5.93;67.44;93298.72;5031030;28;19986;-65
2024/01/18 08:21:14;;;;;;;;;;;;;;;-6.06;63.35;93309.34;5020612;28;20270;-63
2024/01/18 08:23:39;;;;;;;;;;;;;;;-5.18;63.46;93308.63;5024381;28;20095;-63
2024/01/18 08:26:06;;;;;;;;;;;;;;;-4.76;61.83;93309.25;5023460;28;19963;-63
2024/01/18 08:28:32;;;;;;;;;;;;;;;-4.15;58.79;93311.50;5020344;28;20410;-64
2024/01/18 08:30:57;;;;;;;;;;;;;;;-3.90;61.94;93317.81;5035249;28;19953;-65
2024/01/18 08:33:22;;;;;;;;;;;;;;;-4.00;61.90;93314.41;5040531;28;19957;-64
2024/01/18 08:35:48;;;;;;;;;;;;;;;-5.01;63.80;93317.47;5018256;28;19956;-64
2024/01/18 08:38:13;;;;;;;;;;;;;;;-6.45;62.79;93318.66;5031497;28;19975;-62
2024/01/18 08:40:38;;;;;;;;;;;;;;;-6.82;64.75;93321.72;5029688;28;19973;-64
2024/01/18 08:43:03;;;;;;;;;;;;;;;-6.34;66.17;93324.66;5035101;28;19987;-64
2024/01/18 08:45:32;;;;;;;;;;;;;;;-5.37;61.25;93318.03;5038009;28;20465;-65
2024/01/18 08:47:57;;;;;;;;;;;;;;;-6.59;61.72;93334.50;5036470;28;20323;-64
2024/01/18 08:50:23;;;;;;;;;;;;;;;-5.28;64.30;93331.13;5037203;28;19954;-64
2024/01/18 08:52:51;;;;;;;;;;;;;;;-3.75;58.58;93338.09;5038025;28;19957;-64
2024/01/18 08:55:16;;;;;;;;;;;;;;;-4.04;57.60;93340.69;5030836;28;20293;-63
2024/01/18 08:57:42;;;;;;;;;;;;;;;-3.65;52.83;93338.88;5022591;28;19955;-64
2024/01/18 09:00:07;;;;;;;;;;;;;;;-3.13;58.83;93337.41;5028726;28;20022;-64
2024/01/18 09:02:32;;;;;;;;;;;;;;;-4.11;55.45;93347.44;5027703;28;19937;-63
2024/01/18 09:04:58;;;;;;;;;;;;;;;-3.23;61.04;93336.69;5032385;28;20015;-64
2024/01/18 09:07:24;;;;;;;;;;;;;;;-3.06;53.52;93337.66;5034324;28;20166;-65
2024/01/18 09:09:49;;;;;;;;;;;;;;;-2.42;57.31;93352.25;5031472;28;19934;-64
2024/01/18 09:12:15;;;;;;;;;;;;;;;-2.02;53.79;93352.63;5024658;28;19955;-64
2024/01/18 09:14:40;;;;;;;;;;;;;;;-2.59;50.83;93366.94;5027118;28;20301;-64
2024/01/18 09:17:06;;;;;;;;;;;;;;;-3.32;57.87;93375.66;5031940;28;19998;-64
2024/01/18 09:19:31;;;;;;;;;;;;;;;-4.79;63.14;93383.00;5025086;28;20512;-64
2024/01/18 09:21:57;;;;;;;;;;;;;;;-6.49;61.14;93392.34;5032585;28;20349;-64
2024/01/18 09:24:22;;;;;;;;;;;;;;;-5.16;65.32;93387.16;5030762;28;20320;-65
2024/01/18 09:26:47;;;;;;;;;;;;;;;-5.15;58.78;93401.75;5029662;28;19998;-65
2024/01/18 09:29:13;;;;;;;;;;;;;;;-2.85;58.26;93397.19;5029749;28;19962;-65
2024/01/18 09:31:38;;;;;;;;;;;;;;;-3.34;55.00;93408.78;5021100;28;19935;-63
2024/01/18 09:34:03;;;;;;;;;;;;;;;-4.40;60.01;93413.31;5026580;28;19983;-62
2024/01/18 09:36:29;;;;;;;;;;;;;;;-3.85;61.17;93427.38;5036287;28;20036;-64
2024/01/18 09:38:54;;;;;;;;;;;;;;;-3.92;62.42;93431.50;5020156;28;20110;-63
2024/01/18 09:41:19;;;;;;;;;;;;;;;-2.89;60.01;93427.94;5024076;28;20184;-65
2024/01/18 09:43:45;;;;;;;;;;;;;;;-2.76;54.93;93422.38;5020247;28;19932;-63
2024/01/18 09:46:10;;;;;;;;;;;;;;;-4.51;58.22;93429.91;5022023;28;20215;-64
2024/01/18 09:48:35;;;;;;;;;;;;;;;-4.01;62.62;93443.59;5031066;28;19959;-62
2024/01/18 09:51:01;;;;;;;;;;;;;;;-3.43;58.69;93459.13;5028978;28;20062;-64
2024/01/18 09:53:26;;;;;;;;;;;;;;;-2.64;52.80;93454.19;5027139;28;19963;-63
2024/01/18 09:55:52;;;;;;;;;;;;;;;-3.42;53.50;93472.00;5030759;28;20376;-64
2024/01/18 09:58:18;;;;;;;;;;;;;;;-4.33;55.66;93473.34;5031037;28;20094;-64
2024/01/18 10:00:46;;;;;;;;;;;;;;;-3.75;54.89;93486.34;5033018;28;20423;-63
2024/01/18 10:03:11;;;;;;;;;;;;;;;-3.19;52.99;93484.59;5032231;28;19928;-62
2024/01/18 10:05:37;;;;;;;;;;;;;;;-3.03;52.34;93494.38;5035572;28;19925;-64
2024/01/18 10:08:03;;;;;;;;;;;;;;;-2.74;55.60;93497.75;5026271;28;20487;-64
2024/01/18 10:10:29;;;;;;;;;;;;;;;-3.10;51.04;93501.13;5034642;28;20154;-62
2024/01/18 10:12:54;;;;;;;;;;;;;;;-3.13;55.89;93498.81;5025002;28;20094;-63
2024/01/18 10:15:35;;;;;;;;;;;;;;;-3.52;54.22;93502.44;5026096;28;20376;-63
2024/01/18 10:18:03;;;;;;;;;;;;;;;-5.41;59.28;93508.63;5020637;28;20444;-63
2024/01/18 10:20:28;;;;;;;;;;;;;;;-4.63;58.75;93507.13;5023487;28;19951;-63
2024/01/18 10:22:54;;;;;;;;;;;;;;;-4.25;58.35;93504.66;5026204;28;19940;-63
2024/01/18 10:25:21;;;;;;;;;;;;;;;-6.03;58.54;93519.81;5023912;28;19965;-64
2024/01/18 10:27:46;;;;;;;;;;;;;;;-4.31;56.01;93516.41;5018639;28;20333;-63
2024/01/18 10:30:12;;;;;;;;;;;;;;;-5.12;58.81;93531.25;5021245;28;19931;-64
2024/01/18 10:32:39;;;;;;;;;;;;;;;-5.07;58.72;93534.25;5014255;28;20427;-63
2024/01/18 10:35:04;;;;;;;;;;;;;;;-4.64;61.04;93536.66;5021528;28;19952;-63
2024/01/18 10:37:30;;;;;;;;;;;;;;;-4.73;56.68;93529.66;5018854;28;19969;-62
2024/01/18 10:39:55;;;;;;;;;;;;;;;-4.91;59.92;93539.88;5021134;28;19964;-63
2024/01/18 10:42:20;;;;;;;;;;;;;;;-3.21;59.02;93537.75;5023260;28;20165;-64
2024/01/18 10:44:46;;;;;;;;;;;;;;;-4.80;56.48;93547.56;5017605;28;20125;-63
2024/01/18 10:47:12;;;;;;;;;;;;;;;-3.75;53.92;93540.97;5023848;28;20473;-63
2024/01/18 10:49:38;;;;;;;;;;;;;;;-4.95;60.90;93553.13;5025323;28;19932;-63
2024/01/18 10:52:04;;;;;;;;;;;;;;;-5.07;59.77;93560.22;5027533;28;19976;-64
2024/01/18 10:54:30;;;;;;;;;;;;;;;-3.56;55.43;93547.91;5027016;28;20705;-63
2024/01/18 10:56:56;;;;;;;;;;;;;;;-4.40;59.39;93570.97;5013732;28;20574;-63
2024/01/18 10:59:21;;;;;;;;;;;;;;;-1.97;51.88;93566.84;5006036;28;19961;-63
2024/01/18 11:01:47;;;;;;;;;;;;;;;-2.34;55.22;93563.47;5024197;28;19935;-63
2024/01/18 11:04:12;;;;;;;;;;;;;;;-3.23;54.03;93576.16;5023501;28;20194;-63
2024/01/18 11:06:37;;;;;;;;;;;;;;;-1.99;55.83;93567.03;5021638;28;19925;-64
2024/01/18 11:09:03;;;;;;;;;;;;;;;-1.66;50.56;93578.69;5022810;28;20005;-63
2024/01/18 11:11:28;;;;;;;;;;;;;;;-1.80;49.93;93577.44;5023275;28;20255;-64
2024/01/18 11:13:53;;;;;;;;;;;;;;;-1.86;49.90;93581.47;5024175;28;20374;-63
2024/01/18 11:16:18;;;;;;;;;;;;;;;-2.99;52.50;93591.25;5026743;28;20431;-62
2024/01/18 11:18:49;;;;;;;;;;;;;;;-2.47;50.23;93602.09;5028965;28;20186;-63
2024/01/18 11:21:14;;;;;;;;;;;;;;;-4.50;57.25;93608.16;5024949;28;19933;-65
2024/01/18 11:23:39;;;;;;;;;;;;;;;-1.85;51.56;93609.19;5016383;28;20033;-64
2024/01/18 11:26:05;;;;;;;;;;;;;;;-2.93;74.31;93619.31;5025745;28;20338;-64
2024/01/18 11:28:30;;;;;;;;;;;;;;;-4.58;60.89;93621.81;5017059;28;19924;-66
2024/01/18 11:30:56;;;;;;;;;;;;;;;-4.88;64.54;93631.31;5015592;28;19951;-64
2024/01/18 11:33:22;;;;;;;;;;;;;;;-2.54;53.75;93626.13;5021060;28;20371;-63
2024/01/18 11:35:50;;;;;;;;;;;;;;;-2.79;53.29;93625.00;5035406;28;20146;-64
2024/01/18 11:38:17;;;;;;;;;;;;;;;-3.98;57.41;93634.91;5027736;28;20000;-64
2024/01/18 11:40:42;;;;;;;;;;;;;;;-3.44;55.59;93642.22;5027361;28;19978;-64
2024/01/18 11:43:08;;;;;;;;;;;;;;;-2.35;50.59;93644.41;5022771;28;19995;-63
2024/01/18 11:45:34;;;;;;;;;;;;;;;-4.88;58.17;93659.88;5036193;28;19925;-64
2024/01/18 11:47:59;;;;;;;;;;;;;;;-3.22;52.59;93658.47;5034138;28;19929;-63
2024/01/18 11:50:24;;;;;;;;;;;;;;;-3.23;50.97;93660.25;5038593;28;19916;-75
2024/01/18 11:52:50;;;;;;;;;;;;;;;-4.27;58.38;93652.09;5027459;28;20135;-74
2024/01/18 11:55:17;;;;;;;;;;;;;;;-3.09;54.33;93664.19;5031786;28;20596;-76
2024/01/18 11:57:43;;;;;;;;;;;;;;;-2.56;49.67;93651.50;5035414;28;19982;-74
2024/01/18 12:00:10;;;;;;;;;;;;;;;-2.84;50.42;93663.69;5031566;28;20414;-74
2024/01/18 12:02:35;;;;;;;;;;;;;;;-2.84;54.64;93671.50;5034403;28;19938;-77
2024/01/18 12:05:03;;;;;;;;;;;;;;;-3.14;49.59;93664.63;5020403;28;19925;-74
2024/01/18 12:07:28;;;;;;;;;;;;;;;-1.90;54.07;93671.44;5018101;28;19956;-73
2024/01/18 12:09:54;;;;;;;;;;;;;;;-0.48;46.96;93660.13;5025750;28;19916;-74
2024/01/18 12:12:19;;;;;;;;;;;;;;;0.49;41.38;93660.69;5017743;28;19944;-75
2024/01/18 12:14:44;;;;;;;;;;;;;;;1.46;40.48;93664.28;5033798;28;20397;-75
2024/01/18 12:17:11;;;;;;;;;;;;;;;1.63;41.52;93670.31;5008867;28;19921;-74
2024/01/18 12:19:42;;;;;;;;;;;;;;;2.44;41.10;93671.03;5022148;28;19932;-76
2024/01/18 12:22:08;;;;;;;;;;;;;;;4.61;34.98;93661.59;5016860;28;20329;-75
2024/01/18 12:24:34;;;;;;;;;;;;;;;4.56;35.58;93673.50;5022382;28;19925;-74
2024/01/18 12:26:59;;;;;;;;;;;;;;;4.81;34.40;93682.88;5033548;28;19960;-76
2024/01/18 12:29:25;;;;;;;;;;;;;;;5.07;32.95;93669.09;5024747;28;19924;-75
2024/01/18 12:31:50;;;;;;;;;;;;;;;4.92;31.69;93677.06;5029894;28;19956;-75
2024/01/18 12:34:19;;;;;;;;;;;;;;;5.25;34.02;93675.75;5028845;28;19970;-73
2024/01/18 12:36:44;;;;;;;;;;;;;;;4.77;32.37;93687.72;5022831;28;20531;-73
2024/01/18 12:39:10;;;;;;;;;;;;;;;4.55;34.57;93692.97;5032934;28;20165;-73